createdAt,value
2023-05-19T00:01:02.490Z,100.00
2023-05-19T00:04:06.003Z,100.00
2023-05-19T00:07:11.459Z,100.00
2023-05-19T00:10:15.210Z,100.00
2023-05-19T00:13:18.286Z,100.00
2023-05-19T00:16:22.936Z,100.00
2023-05-19T00:19:26.315Z,100.00
2023-05-19T00:22:29.415Z,100.00
2023-05-19T00:25:32.099Z,100.00
2023-05-19T00:28:35.158Z,100.00
2023-05-19T00:31:37.904Z,100.00
2023-05-19T00:34:41.021Z,100.00
2023-05-19T00:37:43.713Z,100.00
2023-05-19T00:40:48.082Z,100.00
2023-05-19T00:44:30.392Z,100.00
2023-05-19T00:47:39.863Z,100.00
2023-05-19T00:50:44.685Z,100.00
2023-05-19T00:53:51.080Z,100.00
2023-05-19T00:56:58.503Z,100.00
2023-05-19T01:00:01.664Z,100.00
2023-05-19T01:03:11.642Z,100.00
2023-05-19T01:06:15.755Z,100.00
2023-05-19T01:09:18.658Z,100.00
2023-05-19T01:12:21.724Z,100.00
2023-05-19T01:15:27.116Z,100.00
2023-05-19T01:18:47.471Z,100.00
2023-05-19T01:22:01.191Z,100.00
2023-05-19T01:25:43.025Z,100.00
2023-05-19T01:29:13.843Z,100.00
2023-05-19T01:32:21.208Z,100.00
2023-05-19T01:35:26.314Z,100.00
2023-05-19T01:38:30.135Z,100.00
2023-05-19T01:41:35.051Z,100.00
2023-05-19T01:44:38.356Z,100.00
2023-05-19T01:47:43.198Z,100.00
2023-05-19T01:50:47.178Z,100.00
2023-05-19T01:53:51.525Z,100.00
2023-05-19T01:57:07.702Z,100.00
2023-05-19T02:00:39.664Z,100.00
2023-05-19T02:04:02.296Z,100.00
2023-05-19T02:07:37.365Z,100.00
2023-05-19T02:10:45.797Z,100.00
2023-05-19T02:13:51.405Z,100.00
2023-05-19T02:16:57.456Z,100.00
2023-05-19T02:20:00.410Z,100.00
2023-05-19T02:23:03.522Z,100.00
2023-05-19T02:26:06.225Z,100.00
2023-05-19T02:29:09.486Z,100.00
2023-05-19T02:32:12.695Z,100.00
2023-05-19T02:35:16.166Z,100.00
2023-05-19T02:38:18.991Z,100.00
2023-05-19T02:41:22.397Z,100.00
2023-05-19T02:44:25.129Z,100.00
2023-05-19T02:47:28.297Z,100.00
2023-05-19T02:50:31.340Z,100.00
2023-05-19T02:53:34.440Z,100.00
2023-05-19T02:56:37.239Z,100.00
2023-05-19T02:59:41.181Z,100.00
2023-05-19T03:02:44.336Z,100.00
2023-05-19T03:05:47.952Z,100.00
2023-05-19T03:08:51.136Z,100.00
2023-05-19T03:11:54.217Z,100.00
2023-05-19T03:14:56.994Z,100.00
2023-05-19T03:18:00.060Z,100.00
2023-05-19T03:21:02.751Z,100.00
2023-05-19T03:24:06.793Z,100.00
2023-05-19T03:27:10.312Z,100.00
2023-05-19T03:30:14.011Z,100.00
2023-05-19T03:33:18.793Z,100.00
2023-05-19T03:36:22.724Z,100.00
2023-05-19T03:39:25.628Z,100.00
2023-05-19T03:42:28.747Z,100.00
2023-05-19T03:45:31.667Z,100.00
2023-05-19T03:48:35.645Z,100.00
2023-05-19T03:51:39.955Z,100.00
2023-05-19T03:54:43.956Z,100.00
2023-05-19T03:57:46.744Z,100.00
2023-05-19T04:00:50.034Z,100.00
2023-05-19T04:03:53.085Z,100.00
2023-05-19T04:06:56.582Z,100.00
2023-05-19T04:09:59.680Z,100.00
2023-05-19T04:13:03.980Z,100.00
2023-05-19T04:16:07.671Z,100.00
2023-05-19T04:19:10.435Z,100.00
2023-05-19T04:22:13.636Z,100.00
2023-05-19T04:25:17.404Z,100.00
2023-05-19T04:28:21.682Z,100.00
2023-05-19T04:31:24.618Z,100.00
2023-05-19T04:34:28.860Z,100.00
2023-05-19T04:37:32.266Z,100.00
2023-05-19T04:40:35.548Z,100.00
2023-05-19T04:43:44.854Z,100.00
2023-05-19T04:46:48.280Z,100.00
2023-05-19T04:49:55.743Z,100.00
2023-05-19T04:52:59.413Z,100.00
2023-05-19T04:56:02.608Z,100.00
2023-05-19T04:59:06.998Z,100.00
2023-05-19T05:02:10.268Z,100.00
2023-05-19T05:05:13.660Z,100.00
2023-05-19T05:08:22.946Z,99.49
2023-05-19T05:11:26.839Z,98.32
2023-05-19T05:14:30.400Z,95.75
2023-05-19T05:17:35.538Z,95.41
2023-05-19T05:20:38.962Z,92.59
2023-05-19T05:23:42.339Z,95.26
2023-05-19T05:26:45.888Z,93.36
2023-05-19T05:29:51.541Z,93.06
2023-05-19T05:32:56.002Z,92.28
2023-05-19T05:36:01.601Z,93.00
2023-05-19T05:39:05.772Z,92.34
2023-05-19T05:42:12.489Z,90.35
2023-05-19T05:45:15.919Z,87.87
2023-05-19T05:48:19.227Z,88.22
2023-05-19T05:51:23.484Z,88.45
2023-05-19T05:54:26.765Z,86.99
2023-05-19T05:57:30.843Z,85.73
2023-05-19T06:00:34.738Z,86.39
2023-05-19T06:03:44.488Z,84.11
2023-05-19T06:06:48.044Z,85.18
2023-05-19T06:09:52.574Z,86.03
2023-05-19T06:12:55.678Z,83.27
2023-05-19T06:16:01.729Z,83.72
2023-05-19T06:19:05.333Z,83.72
2023-05-19T06:22:08.452Z,84.59
2023-05-19T06:25:11.352Z,84.43
2023-05-19T06:28:15.010Z,83.61
2023-05-19T06:31:17.891Z,85.38
2023-05-19T06:34:21.414Z,83.74
2023-05-19T06:37:24.383Z,84.07
2023-05-19T06:40:27.405Z,84.15
2023-05-19T06:43:30.507Z,84.49
2023-05-19T06:46:33.653Z,84.07
2023-05-19T06:49:36.432Z,82.67
2023-05-19T06:52:39.652Z,83.45
2023-05-19T06:55:54.774Z,82.42
2023-05-19T06:59:02.285Z,83.56
2023-05-19T07:02:05.685Z,83.60
2023-05-19T07:05:09.399Z,82.88
2023-05-19T07:08:12.458Z,84.59
2023-05-19T07:11:15.973Z,83.63
2023-05-19T07:14:19.044Z,82.30
2023-05-19T07:17:22.632Z,81.39
2023-05-19T07:20:25.926Z,80.65
2023-05-19T07:23:29.752Z,81.27
2023-05-19T07:26:32.399Z,81.23
2023-05-19T07:29:35.398Z,80.78
2023-05-19T07:32:38.317Z,80.17
2023-05-19T07:35:41.580Z,80.33
2023-05-19T07:38:44.475Z,79.83
2023-05-19T07:41:52.851Z,81.30
2023-05-19T07:44:55.643Z,80.28
2023-05-19T07:47:58.652Z,78.33
2023-05-19T07:51:03.568Z,78.76
2023-05-19T07:54:17.140Z,77.80
2023-05-19T07:57:19.941Z,78.81
2023-05-19T08:00:23.121Z,79.25
2023-05-19T08:03:27.099Z,77.58
2023-05-19T08:06:30.387Z,79.11
2023-05-19T08:09:33.450Z,78.62
2023-05-19T08:12:36.239Z,77.41
2023-05-19T08:15:39.375Z,78.21
2023-05-19T08:18:42.174Z,76.89
2023-05-19T08:21:45.565Z,75.66
2023-05-19T08:24:49.877Z,75.90
2023-05-19T08:27:52.786Z,74.43
2023-05-19T08:30:55.869Z,75.15
2023-05-19T08:33:58.956Z,73.88
2023-05-19T08:37:01.747Z,73.32
2023-05-19T08:40:05.916Z,74.52
2023-05-19T08:43:09.996Z,76.34
2023-05-19T08:46:15.136Z,76.05
2023-05-19T08:49:27.905Z,75.70
2023-05-19T08:57:00.639Z,73.58
2023-05-19T09:00:14.563Z,70.54
2023-05-19T09:03:23.689Z,71.13
2023-05-19T09:06:27.525Z,71.91
2023-05-19T09:09:30.755Z,70.04
2023-05-19T09:12:34.410Z,71.07
2023-05-19T09:15:39.243Z,69.51
2023-05-19T09:18:55.193Z,69.88
2023-05-19T09:22:05.864Z,70.50
2023-05-19T09:25:20.249Z,69.38
2023-05-19T09:28:28.189Z,66.76
2023-05-19T09:31:33.710Z,65.68
2023-05-19T09:34:42.000Z,65.95
2023-05-19T09:37:44.934Z,65.88
2023-05-19T09:40:49.959Z,66.98
2023-05-19T09:43:56.443Z,66.75
2023-05-19T09:46:59.997Z,66.93
2023-05-19T09:50:05.342Z,66.28
2023-05-19T09:53:08.167Z,66.85
2023-05-19T09:56:11.193Z,66.21
2023-05-19T09:59:16.222Z,66.14
2023-05-19T10:02:21.810Z,67.47
2023-05-19T10:05:25.035Z,66.63
2023-05-19T10:08:30.629Z,66.80
2023-05-19T10:11:34.354Z,68.47
2023-05-19T10:14:37.843Z,67.18
2023-05-19T10:17:42.599Z,68.06
2023-05-19T10:20:49.169Z,69.34
2023-05-19T10:23:52.187Z,68.66
2023-05-19T10:27:05.626Z,67.54
2023-05-19T10:30:15.028Z,67.15
2023-05-19T10:33:22.305Z,66.68
2023-05-19T10:36:44.959Z,65.61
2023-05-19T10:39:51.293Z,65.92
2023-05-19T10:43:07.475Z,68.92
2023-05-19T10:46:10.193Z,68.30
2023-05-19T10:49:21.640Z,67.74
2023-05-19T10:52:29.879Z,69.09
2023-05-19T10:55:47.702Z,70.25
2023-05-19T10:58:50.764Z,70.55
2023-05-19T11:01:53.841Z,70.80
2023-05-19T11:05:09.453Z,70.61
2023-05-19T11:08:12.888Z,72.04
2023-05-19T11:11:16.906Z,70.56
2023-05-19T11:14:27.489Z,71.47
2023-05-19T11:17:30.189Z,70.52
2023-05-19T11:20:35.090Z,70.05
2023-05-19T11:23:41.069Z,70.10
2023-05-19T11:26:45.715Z,68.69
2023-05-19T11:29:49.437Z,68.92
2023-05-19T11:32:54.388Z,68.29
2023-05-19T11:36:00.831Z,66.45
2023-05-19T11:39:04.601Z,66.58
2023-05-19T11:42:11.117Z,66.45
2023-05-19T11:45:14.234Z,67.37
2023-05-19T11:48:17.671Z,66.97
2023-05-19T11:51:21.810Z,67.60
2023-05-19T11:54:33.684Z,66.86
2023-05-19T11:57:37.186Z,62.74
2023-05-19T12:00:41.834Z,60.93
2023-05-19T12:03:44.965Z,64.74
2023-05-19T12:06:49.363Z,65.03
2023-05-19T12:09:53.291Z,65.81
2023-05-19T12:12:57.272Z,67.07
2023-05-19T12:16:01.484Z,67.50
2023-05-19T12:19:07.074Z,69.67
2023-05-19T12:22:10.495Z,69.36
2023-05-19T12:25:13.550Z,65.29
2023-05-19T12:28:17.209Z,64.06
2023-05-19T12:31:23.828Z,63.72
2023-05-19T12:34:26.926Z,63.59
2023-05-19T12:37:30.198Z,64.18
2023-05-19T12:40:37.779Z,66.89
2023-05-19T12:43:41.335Z,66.86
2023-05-19T12:46:44.500Z,67.23
2023-05-19T12:50:09.506Z,65.99
2023-05-19T12:53:13.199Z,67.83
2023-05-19T12:56:16.379Z,65.32
2023-05-19T12:59:37.364Z,63.99
2023-05-19T13:03:00.258Z,63.56
2023-05-19T13:06:03.577Z,62.47
2023-05-19T13:09:07.292Z,63.79
2023-05-19T13:12:10.319Z,63.60
2023-05-19T13:15:12.955Z,63.79
2023-05-19T13:18:16.053Z,61.35
2023-05-19T13:21:18.710Z,61.16
2023-05-19T13:24:21.622Z,59.38
2023-05-19T13:27:24.906Z,59.02
2023-05-19T13:30:28.347Z,60.23
2023-05-19T13:33:31.002Z,62.25
2023-05-19T13:36:35.091Z,62.88
2023-05-19T13:39:37.858Z,65.29
2023-05-19T13:42:41.212Z,64.97
2023-05-19T13:45:44.589Z,62.85
2023-05-19T13:48:47.530Z,62.92
2023-05-19T13:51:50.253Z,62.34
2023-05-19T13:54:54.882Z,62.93
2023-05-19T13:57:57.642Z,62.24
2023-05-19T14:01:00.590Z,62.76
2023-05-19T14:04:04.420Z,61.17
2023-05-19T14:07:09.768Z,62.65
2023-05-19T14:10:12.798Z,62.51
2023-05-19T14:13:31.512Z,61.00
2023-05-19T14:16:37.600Z,61.28
2023-05-19T14:19:41.038Z,59.92
2023-05-19T14:22:43.965Z,59.52
2023-05-19T14:25:46.605Z,57.43
2023-05-19T14:28:49.536Z,56.39
2023-05-19T14:31:52.128Z,56.08
2023-05-19T14:34:55.400Z,56.12
2023-05-19T14:37:58.050Z,57.29
2023-05-19T14:41:01.093Z,53.78
2023-05-19T14:44:04.011Z,52.02
2023-05-19T14:47:07.551Z,52.17
2023-05-19T14:50:10.455Z,54.80
2023-05-19T14:53:13.438Z,56.94
2023-05-19T14:56:16.048Z,56.68
2023-05-19T14:59:19.052Z,57.90
2023-05-19T15:02:21.775Z,58.46
2023-05-19T15:05:24.717Z,58.15
2023-05-19T15:08:27.617Z,57.22
2023-05-19T15:11:30.636Z,57.15
2023-05-19T15:14:33.242Z,58.66
2023-05-19T15:17:36.519Z,58.54
2023-05-19T15:20:39.206Z,57.25
2023-05-19T15:23:42.213Z,57.46
2023-05-19T15:26:45.853Z,57.85
2023-05-19T15:29:48.822Z,57.53
2023-05-19T15:32:51.481Z,59.32
2023-05-19T15:35:54.536Z,58.56
2023-05-19T15:38:57.273Z,54.55
2023-05-19T15:42:00.333Z,53.67
2023-05-19T15:45:03.115Z,53.60
2023-05-19T15:48:06.370Z,52.44
2023-05-19T15:51:09.062Z,51.40
2023-05-19T15:54:12.009Z,52.45
2023-05-19T15:57:14.628Z,51.44
2023-05-19T16:00:17.648Z,50.90
2023-05-19T16:03:22.552Z,51.23
2023-05-19T16:06:27.666Z,52.41
2023-05-19T16:09:30.789Z,52.18
2023-05-19T16:12:33.789Z,53.00
2023-05-19T16:15:36.681Z,54.65
2023-05-19T16:18:39.377Z,55.83
2023-05-19T16:21:42.406Z,57.83
2023-05-19T16:24:45.094Z,58.80
2023-05-19T16:27:47.990Z,60.05
2023-05-19T16:30:50.721Z,61.60
2023-05-19T16:33:54.136Z,63.10
2023-05-19T16:36:56.801Z,61.68
2023-05-19T16:39:59.886Z,60.06
2023-05-19T16:43:02.579Z,59.42
2023-05-19T16:46:05.771Z,57.92
2023-05-19T16:49:08.532Z,58.42
2023-05-19T16:52:11.675Z,57.96
2023-05-19T16:55:19.790Z,59.47
2023-05-19T16:58:22.806Z,61.04
2023-05-19T17:01:25.605Z,61.87
2023-05-19T17:04:30.639Z,63.02
2023-05-19T17:07:33.681Z,63.04
2023-05-19T17:10:38.671Z,64.62
2023-05-19T17:13:43.570Z,65.11
2023-05-19T17:16:46.732Z,65.79
2023-05-19T17:19:49.397Z,67.43
2023-05-19T17:22:52.827Z,68.81
2023-05-19T17:25:55.853Z,69.43
2023-05-19T17:28:58.908Z,70.36
2023-05-19T17:32:01.639Z,71.11
2023-05-19T17:35:06.778Z,70.45
2023-05-19T17:38:09.532Z,69.36
2023-05-19T17:41:14.170Z,69.72
2023-05-19T17:44:16.845Z,79.32
2023-05-19T17:47:19.693Z,76.31
2023-05-19T17:50:22.318Z,73.96
2023-05-19T17:53:26.319Z,73.90
2023-05-19T17:56:34.105Z,74.73
2023-05-19T17:59:37.319Z,75.13
2023-05-19T18:02:40.450Z,75.26
2023-05-19T18:05:44.734Z,75.49
2023-05-19T18:08:50.682Z,76.04
2023-05-19T18:11:55.114Z,77.46
2023-05-19T18:14:57.958Z,80.72
2023-05-19T18:18:01.439Z,81.45
2023-05-19T18:21:04.415Z,82.70
2023-05-19T18:24:07.375Z,83.02
2023-05-19T18:27:10.106Z,82.59
2023-05-19T18:30:13.232Z,83.17
2023-05-19T18:33:16.470Z,83.55
2023-05-19T18:36:19.723Z,83.52
2023-05-19T18:39:22.367Z,84.48
2023-05-19T18:42:25.546Z,84.44
2023-05-19T18:45:28.247Z,84.66
2023-05-19T18:48:32.141Z,85.68
2023-05-19T18:51:36.139Z,85.59
2023-05-19T18:54:40.677Z,85.67
2023-05-19T18:57:43.408Z,86.26
2023-05-19T19:00:46.414Z,87.10
2023-05-19T19:03:49.507Z,87.24
2023-05-19T19:06:52.554Z,86.96
2023-05-19T19:09:55.261Z,87.24
2023-05-19T19:12:58.263Z,88.46
2023-05-19T19:16:01.200Z,89.48
2023-05-19T19:19:04.349Z,90.73
2023-05-19T19:22:07.064Z,90.39
2023-05-19T19:25:10.127Z,91.64
2023-05-19T19:28:12.779Z,91.85
2023-05-19T19:31:15.843Z,91.22
2023-05-19T19:34:19.966Z,92.36
2023-05-19T19:37:22.863Z,92.52
2023-05-19T19:40:25.579Z,93.69
2023-05-19T19:43:28.466Z,94.46
2023-05-19T19:46:31.173Z,95.15
2023-05-19T19:49:34.160Z,95.34
2023-05-19T19:52:37.306Z,95.83
2023-05-19T19:55:40.237Z,96.54
2023-05-19T19:58:42.897Z,98.51
2023-05-19T20:01:45.997Z,98.51
2023-05-19T20:04:49.696Z,98.66
2023-05-19T20:07:52.363Z,98.39
2023-05-19T20:10:55.288Z,98.28
2023-05-19T20:13:57.905Z,98.48
2023-05-19T20:17:00.895Z,98.66
2023-05-19T20:20:08.098Z,99.49
2023-05-19T20:23:12.643Z,98.94
2023-05-19T20:26:16.026Z,99.88
2023-05-19T20:29:19.099Z,99.87
2023-05-19T20:32:21.805Z,100.00
2023-05-19T20:35:25.165Z,99.62
2023-05-19T20:38:27.804Z,99.42
2023-05-19T20:41:31.378Z,99.91
2023-05-19T20:44:34.061Z,100.00
2023-05-19T20:47:37.183Z,100.00
2023-05-19T20:50:40.078Z,100.00
2023-05-19T20:53:43.127Z,100.00
2023-05-19T20:56:46.113Z,100.00
2023-05-19T20:59:49.108Z,100.00
2023-05-19T21:02:52.080Z,100.00
2023-05-19T21:05:55.694Z,100.00
2023-05-19T21:08:58.398Z,100.00
2023-05-19T21:12:01.398Z,100.00
2023-05-19T21:15:05.967Z,100.00
2023-05-19T21:18:11.951Z,100.00
2023-05-19T21:21:14.887Z,100.00
2023-05-19T21:24:17.879Z,100.00
2023-05-19T21:27:20.799Z,100.00
2023-05-19T21:30:24.419Z,100.00
2023-05-19T21:33:27.007Z,100.00
2023-05-19T21:36:29.994Z,100.00
2023-05-19T21:39:32.674Z,100.00
2023-05-19T21:42:35.917Z,100.00
2023-05-19T21:45:38.858Z,100.00
2023-05-19T21:48:41.806Z,100.00
2023-05-19T21:51:44.430Z,100.00
2023-05-19T21:54:47.916Z,100.00
2023-05-19T21:57:50.557Z,100.00
2023-05-19T22:00:57.015Z,100.00
2023-05-19T22:04:00.002Z,100.00
2023-05-19T22:07:02.680Z,100.00
2023-05-19T22:10:06.068Z,100.00
2023-05-19T22:13:08.764Z,100.00
2023-05-19T22:16:11.692Z,100.00
2023-05-19T22:19:14.882Z,100.00
2023-05-19T22:22:17.796Z,100.00
2023-05-19T22:25:20.550Z,100.00
2023-05-19T22:28:23.458Z,100.00
2023-05-19T22:31:26.088Z,100.00
2023-05-19T22:34:29.129Z,100.00
2023-05-19T22:37:31.871Z,100.00
2023-05-19T22:40:34.978Z,100.00
2023-05-19T22:43:38.023Z,100.00
2023-05-19T22:46:41.082Z,100.00
2023-05-19T22:49:43.856Z,100.00
2023-05-19T22:52:46.770Z,100.00
2023-05-19T22:55:49.400Z,100.00
2023-05-19T22:58:52.301Z,100.00
2023-05-19T23:01:55.068Z,100.00
2023-05-19T23:04:57.993Z,100.00
2023-05-19T23:08:00.694Z,100.00
2023-05-19T23:11:03.694Z,100.00
2023-05-19T23:14:06.346Z,100.00
2023-05-19T23:17:09.353Z,100.00
2023-05-19T23:20:12.913Z,100.00
2023-05-19T23:23:16.375Z,100.00
2023-05-19T23:26:19.078Z,100.00
2023-05-19T23:29:22.056Z,100.00
2023-05-19T23:32:24.635Z,100.00
2023-05-19T23:35:27.726Z,100.00
2023-05-19T23:38:30.405Z,100.00
2023-05-19T23:41:33.344Z,100.00
2023-05-19T23:44:36.217Z,100.00
2023-05-19T23:47:39.376Z,100.00
2023-05-19T23:50:42.102Z,100.00
2023-05-19T23:53:45.049Z,100.00
2023-05-19T23:56:47.818Z,100.00
2023-05-19T23:59:50.753Z,100.00
